Time;durP1;ratioP1;P1;durP2;ratioP2;P2;SDS_P1;SDS_P2;PMS_P1;PMS_P2;Temp;Humidity;BMP_temperature;BMP_pressure;BME280_temperature;BME280_humidity;BME280_pressure;Samples;Min_cycle;Max_cycle;Signal;HPM_P1;HPM_P2
2023/12/24 00:03:08;;;;;;;0.73;0.40;;;19.80;41.20;;;;;;8363757;28;20483;-50
2023/12/24 00:07:09;;;;;;;0.32;0.30;;;19.80;41.00;;;;;;8363174;28;20052;-50
2023/12/24 00:11:09;;;;;;;0.50;0.30;;;19.80;41.10;;;;;;8363701;28;20033;-51
2023/12/24 00:15:10;;;;;;;0.35;0.35;;;19.80;41.30;;;;;;8363226;28;20690;-49
2023/12/24 00:19:11;;;;;;;0.30;0.30;;;19.70;41.60;;;;;;8361415;28;20040;-51
2023/12/24 00:23:12;;;;;;;0.43;0.30;;;19.70;41.50;;;;;;8362853;28;20037;-49
2023/12/24 00:27:12;;;;;;;0.45;0.20;;;19.60;42.60;;;;;;8362525;28;20175;-49
2023/12/24 00:31:13;;;;;;;0.20;0.20;;;19.40;42.50;;;;;;8362257;28;20033;-51
2023/12/24 00:35:14;;;;;;;0.22;0.22;;;19.50;42.20;;;;;;8362356;28;20386;-50
2023/12/24 00:39:14;;;;;;;0.20;0.20;;;19.60;41.90;;;;;;8362278;28;20079;-50
2023/12/24 00:43:15;;;;;;;0.20;0.20;;;19.60;41.60;;;;;;8360838;28;20040;-49
2023/12/24 00:47:16;;;;;;;0.20;0.20;;;19.80;41.30;;;;;;8361039;28;20033;-49
2023/12/24 00:51:17;;;;;;;0.30;0.30;;;19.80;41.20;;;;;;8361822;28;20032;-49
2023/12/24 00:55:17;;;;;;;0.30;0.30;;;19.80;41.00;;;;;;8361637;28;20371;-48
2023/12/24 00:59:18;;;;;;;1.00;0.38;;;19.80;41.00;;;;;;8361449;28;20029;-50
2023/12/24 01:03:19;;;;;;;0.20;0.20;;;19.80;41.00;;;;;;8361358;28;20363;-49
2023/12/24 01:07:20;;;;;;;0.90;0.30;;;19.80;41.00;;;;;;8361099;28;20057;-49
2023/12/24 01:11:21;;;;;;;2.22;0.38;;;19.80;41.00;;;;;;8361207;28;20560;-49
2023/12/24 01:15:22;;;;;;;0.38;0.30;;;19.60;42.50;;;;;;8360925;28;20033;-49
2023/12/24 01:19:23;;;;;;;0.30;0.30;;;19.40;42.90;;;;;;8361568;28;20026;-48
2023/12/24 01:23:23;;;;;;;0.43;0.20;;;19.50;42.30;;;;;;8360830;28;20087;-48
2023/12/24 01:27:24;;;;;;;0.10;0.10;;;19.50;41.80;;;;;;8360561;28;20033;-48
2023/12/24 01:31:25;;;;;;;0.43;0.30;;;19.60;41.50;;;;;;8360819;28;20057;-47
2023/12/24 01:35:26;;;;;;;0.22;0.20;;;19.70;41.20;;;;;;8360473;28;20036;-48
2023/12/24 01:39:26;;;;;;;0.57;0.10;;;19.80;41.00;;;;;;8360325;28;20055;-47
2023/12/24 01:43:27;;;;;;;0.20;0.20;;;19.80;41.00;;;;;;8360516;28;20037;-50
2023/12/24 01:47:28;;;;;;;0.32;0.20;;;19.80;40.90;;;;;;8360449;28;20037;-47
2023/12/24 01:51:31;;;;;;;0.30;0.30;;;19.80;40.90;;;;;;8358811;28;20646;-48
2023/12/24 01:55:32;;;;;;;0.22;0.22;;;19.80;41.00;;;;;;8360094;28;20029;-47
2023/12/24 01:59:34;;;;;;;0.43;0.35;;;19.80;41.10;;;;;;8359669;28;20037;-48
2023/12/24 02:03:35;;;;;;;0.28;0.20;;;19.60;42.20;;;;;;8359830;28;20025;-47
2023/12/24 02:07:37;;;;;;;0.63;0.30;;;19.50;42.30;;;;;;8359582;28;20048;-46
2023/12/24 02:11:39;;;;;;;0.20;0.20;;;19.50;41.80;;;;;;8360230;28;20056;-47
2023/12/24 02:15:40;;;;;;;0.40;0.25;;;19.60;41.80;;;;;;8359558;28;20036;-47
2023/12/24 02:19:41;;;;;;;0.10;0.10;;;19.60;41.70;;;;;;8359592;28;20037;-50
2023/12/24 02:23:41;;;;;;;0.10;0.10;;;19.70;41.40;;;;;;8359663;28;20025;-48
2023/12/24 02:27:51;;;;;;;0.35;0.20;;;19.80;41.10;;;;;;8359286;28;20041;-48
2023/12/24 02:32:01;;;;;;;0.30;0.20;;;19.80;41.00;;;;;;8359581;28;20389;-50
2023/12/24 02:36:04;;;;;;;0.40;0.30;;;19.80;41.00;;;;;;8359367;28;20039;-49
2023/12/24 02:40:05;;;;;;;0.20;0.20;;;19.80;41.00;;;;;;8359020;28;20386;-50
2023/12/24 02:44:06;;;;;;;;;;;19.80;41.00;;;;;;8359591;28;20094;-49
2023/12/24 02:48:06;;;;;;;0.23;0.20;;;19.70;41.30;;;;;;8359387;28;19962;-49
2023/12/24 02:52:07;;;;;;;2.08;0.20;;;19.50;42.40;;;;;;8359785;28;20017;-50
2023/12/24 02:56:08;;;;;;;0.20;0.20;;;19.50;42.30;;;;;;8358726;28;20029;-49
2023/12/24 03:00:09;;;;;;;0.22;0.22;;;19.50;41.80;;;;;;8358936;28;20025;-49
2023/12/24 03:04:10;;;;;;;;;;;19.60;41.50;;;;;;8359399;28;20058;-49
2023/12/24 03:08:11;;;;;;;0.23;0.23;;;19.60;41.20;;;;;;8358699;28;19921;-50
2023/12/24 03:12:11;;;;;;;0.20;0.20;;;19.70;41.00;;;;;;8364977;28;20033;-49
2023/12/24 03:16:12;;;;;;;0.20;0.20;;;19.70;41.00;;;;;;8364812;28;20041;-50
2023/12/24 03:20:13;;;;;;;1.27;0.20;;;19.70;41.30;;;;;;8364930;28;20036;-50
2023/12/24 03:24:13;;;;;;;0.28;0.28;;;19.80;41.10;;;;;;8364781;28;20033;-49
2023/12/24 03:28:14;;;;;;;0.20;0.20;;;19.70;41.00;;;;;;8364255;28;20025;-49
2023/12/24 03:32:15;;;;;;;0.30;0.30;;;19.80;41.00;;;;;;8364620;28;20501;-51
2023/12/24 03:36:15;;;;;;;0.35;0.22;;;19.70;41.40;;;;;;8364466;28;20113;-49
2023/12/24 03:40:16;;;;;;;0.20;0.20;;;19.50;42.30;;;;;;8364115;28;20108;-48
2023/12/24 03:44:17;;;;;;;0.82;0.20;;;19.40;42.10;;;;;;8364075;28;20033;-48
2023/12/24 03:48:17;;;;;;;0.20;0.20;;;19.50;41.70;;;;;;8364286;28;20036;-48
2023/12/24 03:52:18;;;;;;;0.15;0.15;;;19.60;41.50;;;;;;8363796;28;20629;-48
2023/12/24 03:56:19;;;;;;;0.10;0.10;;;19.60;41.20;;;;;;8363871;28;20037;-48
2023/12/24 04:00:20;;;;;;;0.17;0.17;;;19.80;40.90;;;;;;8363319;28;20039;-46
2023/12/24 04:04:20;;;;;;;;;;;19.80;40.70;;;;;;8362589;28;20033;-48
2023/12/24 04:08:21;;;;;;;0.10;0.10;;;19.80;40.70;;;;;;8363100;28;19927;-49
2023/12/24 04:12:22;;;;;;;0.20;0.20;;;19.80;40.70;;;;;;8363173;28;20276;-49
2023/12/24 04:16:23;;;;;;;0.20;0.20;;;19.80;40.90;;;;;;8361838;28;20037;-49
2023/12/24 04:20:24;;;;;;;0.20;0.20;;;19.70;41.20;;;;;;8362911;28;20037;-50
2023/12/24 04:24:25;;;;;;;0.20;0.20;;;19.70;41.50;;;;;;8362569;28;20064;-46
2023/12/24 04:28:26;;;;;;;;;;;19.50;42.40;;;;;;8362991;28;20040;-48
2023/12/24 04:32:27;;;;;;;0.40;0.40;;;19.40;42.10;;;;;;8362817;28;19909;-48
2023/12/24 04:36:27;;;;;;;1.35;0.20;;;19.50;41.70;;;;;;8362470;28;20694;-48
2023/12/24 04:40:28;;;;;;;0.20;0.20;;;19.60;41.50;;;;;;8362398;28;20436;-47
2023/12/24 04:44:29;;;;;;;0.20;0.20;;;19.60;41.20;;;;;;8362231;28;20033;-49
2023/12/24 04:48:29;;;;;;;0.20;0.20;;;19.70;41.00;;;;;;8361989;28;20083;-49
2023/12/24 04:52:35;;;;;;;0.25;0.25;;;19.80;40.80;;;;;;8361149;28;20036;-52
2023/12/24 04:56:36;;;;;;;0.20;0.20;;;19.80;40.70;;;;;;8361899;28;20033;-49
2023/12/24 05:00:36;;;;;;;0.20;0.20;;;19.80;40.70;;;;;;8362053;28;20055;-49
2023/12/24 05:04:37;;;;;;;0.20;0.20;;;19.80;40.80;;;;;;8361580;28;20586;-50
2023/12/24 05:08:40;;;;;;;0.20;0.20;;;19.80;40.80;;;;;;8361522;28;20049;-50
2023/12/24 05:12:41;;;;;;;0.52;0.30;;;19.70;41.30;;;;;;8362553;28;20483;-50
2023/12/24 05:16:42;;;;;;;0.10;0.10;;;19.40;42.70;;;;;;8361290;28;20446;-50
2023/12/24 05:20:43;;;;;;;0.22;0.22;;;19.20;42.50;;;;;;8361263;28;20115;-51
2023/12/24 05:24:43;;;;;;;0.25;0.25;;;19.40;42.00;;;;;;8361088;28;20041;-49
2023/12/24 05:28:44;;;;;;;0.20;0.20;;;19.50;41.50;;;;;;8361107;28;20044;-49
2023/12/24 05:32:45;;;;;;;0.20;0.20;;;19.60;41.20;;;;;;8360409;28;20052;-50
2023/12/24 05:36:47;;;;;;;0.20;0.20;;;19.70;40.90;;;;;;8360765;28;20029;-49
2023/12/24 05:40:48;;;;;;;0.10;0.10;;;19.70;40.80;;;;;;8360483;28;20061;-52
2023/12/24 05:44:48;;;;;;;0.20;0.20;;;19.70;40.80;;;;;;8360568;28;20063;-49
2023/12/24 05:48:49;;;;;;;0.10;0.10;;;19.80;40.80;;;;;;8360375;28;20055;-49
2023/12/24 05:52:50;;;;;;;0.10;0.10;;;19.80;40.80;;;;;;8360367;28;20033;-50
2023/12/24 05:56:50;;;;;;;0.20;0.20;;;19.80;40.80;;;;;;8360465;28;20033;-52
2023/12/24 06:00:52;;;;;;;0.15;0.15;;;19.60;41.40;;;;;;8360026;28;20394;-46
2023/12/24 06:04:53;;;;;;;0.10;0.10;;;19.40;42.40;;;;;;8358400;28;20379;-48
2023/12/24 06:08:53;;;;;;;0.30;0.25;;;19.40;42.00;;;;;;8359867;28;20063;-47
2023/12/24 06:12:54;;;;;;;0.20;0.20;;;19.50;41.60;;;;;;8359710;28;20163;-49
2023/12/24 06:16:55;;;;;;;0.20;0.20;;;19.60;41.40;;;;;;8359998;28;20025;-48
2023/12/24 06:20:56;;;;;;;0.17;0.17;;;19.60;41.30;;;;;;8359547;28;20032;-49
2023/12/24 06:24:56;;;;;;;0.20;0.10;;;19.70;40.90;;;;;;8359572;28;20041;-48
2023/12/24 06:28:57;;;;;;;0.10;0.10;;;19.80;40.60;;;;;;8359471;28;20037;-48
2023/12/24 06:32:58;;;;;;;0.20;0.20;;;19.90;40.50;;;;;;8359498;28;20300;-47
2023/12/24 06:36:58;;;;;;;0.10;0.10;;;19.90;40.50;;;;;;8359383;28;20538;-47
2023/12/24 06:40:59;;;;;;;0.13;0.13;;;19.90;40.50;;;;;;8359356;28;20064;-48
2023/12/24 06:45:00;;;;;;;0.10;0.10;;;19.90;40.50;;;;;;8363680;28;20047;-49
2023/12/24 06:49:00;;;;;;;0.20;0.20;;;19.80;41.00;;;;;;8365782;28;20542;-49
2023/12/24 06:53:01;;;;;;;0.20;0.20;;;19.70;41.80;;;;;;8365877;28;20041;-49
2023/12/24 06:57:03;;;;;;;0.30;0.30;;;19.60;41.50;;;;;;8365360;28;20120;-50
2023/12/24 07:01:03;;;;;;;0.10;0.10;;;19.70;41.10;;;;;;8365326;28;20060;-47
2023/12/24 07:05:04;;;;;;;0.10;0.10;;;19.80;40.80;;;;;;8365812;28;20526;-48
2023/12/24 07:09:05;;;;;;;0.20;0.20;;;19.80;40.50;;;;;;8364824;28;20033;-46
2023/12/24 07:13:07;;;;;;;0.10;0.10;;;19.90;40.30;;;;;;8365145;28;20048;-51
2023/12/24 07:17:07;;;;;;;;;;;19.90;40.30;;;;;;8365306;28;20108;-49
2023/12/24 07:21:08;;;;;;;0.20;0.20;;;20.00;40.50;;;;;;8364671;28;19905;-49
2023/12/24 07:25:09;;;;;;;0.32;0.32;;;20.00;40.40;;;;;;8364632;28;20386;-51
2023/12/24 07:29:10;;;;;;;0.25;0.10;;;20.00;40.30;;;;;;8364341;28;20112;-49
2023/12/24 07:33:11;;;;;;;0.17;0.13;;;20.00;40.40;;;;;;8364473;28;20033;-50
2023/12/24 07:37:13;;;;;;;0.20;0.20;;;19.90;40.90;;;;;;8364338;28;20116;-49
2023/12/24 07:41:14;;;;;;;0.10;0.10;;;19.70;41.80;;;;;;8363871;28;20536;-49
2023/12/24 07:45:15;;;;;;;0.10;0.10;;;19.70;41.40;;;;;;8364048;28;20041;-49
2023/12/24 07:49:15;;;;;;;0.20;0.20;;;19.80;41.00;;;;;;8363908;28;20057;-49
2023/12/24 07:53:16;;;;;;;0.20;0.20;;;19.80;40.60;;;;;;8363755;28;20036;-50
2023/12/24 07:57:17;;;;;;;0.10;0.10;;;19.90;40.50;;;;;;8363228;28;20033;-49
2023/12/24 08:01:18;;;;;;;0.30;0.20;;;19.90;40.20;;;;;;8363539;28;20033;-49
2023/12/24 08:05:18;;;;;;;0.17;0.17;;;20.10;40.00;;;;;;8363337;28;20518;-49
2023/12/24 08:09:19;;;;;;;0.20;0.20;;;20.00;40.00;;;;;;8363108;28;20090;-49
2023/12/24 08:13:20;;;;;;;0.20;0.20;;;20.00;40.10;;;;;;8363078;28;20033;-51
2023/12/24 08:17:21;;;;;;;;;;;20.00;40.40;;;;;;8363829;28;20113;-49
2023/12/24 08:21:21;;;;;;;0.50;0.13;;;20.00;40.50;;;;;;8362819;28;19910;-51
2023/12/24 08:25:22;;;;;;;0.20;0.20;;;19.80;41.10;;;;;;8362722;28;20498;-47
2023/12/24 08:29:23;;;;;;;0.20;0.20;;;19.70;41.70;;;;;;8361461;28;20047;-47
2023/12/24 08:33:24;;;;;;;0.13;0.13;;;19.60;41.30;;;;;;8362445;28;20041;-48
2023/12/24 08:37:25;;;;;;;0.20;0.20;;;19.70;40.90;;;;;;8362496;28;20037;-47
2023/12/24 08:41:25;;;;;;;0.10;0.10;;;19.80;40.50;;;;;;8362437;28;20037;-50
2023/12/24 08:45:27;;;;;;;0.10;0.10;;;19.90;40.30;;;;;;8362083;28;20036;-48
2023/12/24 08:49:28;;;;;;;0.25;0.25;;;20.00;40.10;;;;;;8360607;28;20536;-48
2023/12/24 08:53:29;;;;;;;0.20;0.20;;;20.10;40.00;;;;;;8360601;28;20372;-48
2023/12/24 08:57:30;;;;;;;0.20;0.20;;;20.00;40.50;;;;;;8361682;28;20433;-49
2023/12/24 09:01:30;;;;;;;0.38;0.20;;;20.00;40.00;;;;;;8361789;28;20029;-48
2023/12/24 09:05:31;;;;;;;0.25;0.25;;;20.00;40.10;;;;;;8361604;28;20061;-47
2023/12/24 09:09:32;;;;;;;0.20;0.20;;;20.00;40.10;;;;;;8360544;28;20043;-49
2023/12/24 09:13:32;;;;;;;0.30;0.30;;;19.80;40.80;;;;;;8361324;28;20059;-48
2023/12/24 09:17:33;;;;;;;0.20;0.20;;;19.60;42.00;;;;;;8361496;28;20395;-51
2023/12/24 09:21:34;;;;;;;0.20;0.20;;;19.60;41.60;;;;;;8360981;28;20090;-48
2023/12/24 09:25:34;;;;;;;0.77;0.50;;;19.70;41.10;;;;;;8360887;28;20104;-49
2023/12/24 09:29:35;;;;;;;0.20;0.20;;;19.80;40.70;;;;;;8360735;28;20025;-48
2023/12/24 09:33:36;;;;;;;0.28;0.28;;;19.90;40.50;;;;;;8360861;28;20033;-48
2023/12/24 09:37:36;;;;;;;0.20;0.20;;;20.00;40.10;;;;;;8360811;28;20083;-51
2023/12/24 09:41:37;;;;;;;0.20;0.20;;;20.10;40.00;;;;;;8360462;28;20065;-50
2023/12/24 09:45:38;;;;;;;0.20;0.20;;;20.00;39.90;;;;;;8360395;28;20025;-49
2023/12/24 09:49:39;;;;;;;0.20;0.20;;;20.10;39.90;;;;;;8360188;28;20040;-51
2023/12/24 09:53:44;;;;;;;0.20;0.20;;;20.00;40.00;;;;;;8360141;28;20033;-52
2023/12/24 09:57:45;;;;;;;0.10;0.10;;;20.00;40.10;;;;;;8360355;28;20033;-52
2023/12/24 10:01:46;;;;;;;0.25;0.25;;;19.80;40.60;;;;;;8359995;28;20091;-50
2023/12/24 10:05:59;;;;;;;;;;;19.70;41.60;;;;;;8360288;28;20056;-49
2023/12/24 10:10:01;;;;;;;0.17;0.17;;;19.70;41.10;;;;;;8360297;28;19951;-49
2023/12/24 10:14:03;;;;;;;0.10;0.10;;;19.70;41.20;;;;;;8342210;28;20029;-52
2023/12/24 10:18:17;;;;;;;0.20;0.20;;;19.80;40.60;;;;;;8359887;28;20033;-50
2023/12/24 10:22:23;;;;;;;0.40;0.40;;;19.80;40.40;;;;;;8359881;28;20059;-49
2023/12/24 10:26:26;;;;;;;0.10;0.10;;;19.90;40.20;;;;;;8359591;28;20067;-49
2023/12/24 10:30:26;;;;;;;0.13;0.13;;;20.00;40.00;;;;;;8359589;28;20036;-51
2023/12/24 10:34:28;;;;;;;0.20;0.20;;;20.00;40.00;;;;;;8359631;28;20108;-50
2023/12/24 10:38:28;;;;;;;;;;;20.10;40.00;;;;;;8359985;28;20036;-51
2023/12/24 10:42:29;;;;;;;0.20;0.20;;;20.00;40.00;;;;;;8359653;28;20388;-48
2023/12/24 10:46:29;;;;;;;0.20;0.20;;;20.00;40.00;;;;;;8359054;28;20041;-47
2023/12/24 10:50:30;;;;;;;0.20;0.20;;;19.80;40.80;;;;;;8359179;28;20033;-48
2023/12/24 10:54:32;;;;;;;0.20;0.20;;;19.70;41.40;;;;;;8359171;28;20563;-48
2023/12/24 10:58:44;;;;;;;0.13;0.13;;;19.70;41.00;;;;;;8359010;28;20099;-48
2023/12/24 11:02:47;;;;;;;0.20;0.20;;;19.80;40.60;;;;;;8359773;28;20033;-47
2023/12/24 11:06:48;;;;;;;0.20;0.20;;;19.90;40.30;;;;;;8358669;28;20045;-49
2023/12/24 11:11:03;;;;;;;0.10;0.10;;;19.90;40.00;;;;;;8358918;28;20060;-46
2023/12/24 11:15:04;;;;;;;0.20;0.20;;;20.00;40.10;;;;;;8358998;28;20080;-48
2023/12/24 11:19:05;;;;;;;0.20;0.20;;;19.90;40.40;;;;;;8358850;28;20041;-46
2023/12/24 11:23:06;;;;;;;0.20;0.20;;;20.00;40.10;;;;;;8358707;28;20116;-47
2023/12/24 11:27:08;;;;;;;0.20;0.20;;;20.00;40.00;;;;;;8358972;28;20044;-47
2023/12/24 11:31:08;;;;;;;0.17;0.17;;;20.00;40.00;;;;;;8361805;28;20112;-47
2023/12/24 11:35:48;;;;;;;0.10;0.10;;;20.00;40.10;;;;;;8363367;28;20040;-50
2023/12/24 11:40:07;;;;;;;0.20;0.20;;;19.70;41.00;;;;;;8364195;28;20061;-48
2023/12/24 11:44:08;;;;;;;0.10;0.10;;;19.60;41.30;;;;;;8364121;28;20025;-48
2023/12/24 11:48:08;;;;;;;0.20;0.20;;;19.70;40.90;;;;;;8364154;28;20037;-49
2023/12/24 11:52:09;;;;;;;0.30;0.30;;;19.80;40.60;;;;;;8363984;28;20033;-50
2023/12/24 11:56:11;;;;;;;0.30;0.30;;;19.80;40.20;;;;;;8362501;28;20033;-49
2023/12/24 12:00:13;;;;;;;0.10;0.10;;;19.90;40.10;;;;;;8363609;28;20040;-48
2023/12/24 12:04:20;;;;;;;0.10;0.10;;;20.00;40.00;;;;;;8363211;28;20032;-49
2023/12/24 12:08:20;;;;;;;0.20;0.20;;;19.90;39.90;;;;;;8363411;28;20045;-46
2023/12/24 12:12:21;;;;;;;;;;;20.00;39.90;;;;;;8362697;28;20037;-50
2023/12/24 12:16:22;;;;;;;1.90;0.30;;;19.90;40.00;;;;;;8361668;28;19912;-50
2023/12/24 12:20:23;;;;;;;0.20;0.20;;;19.90;40.40;;;;;;8363296;28;20060;-47
2023/12/24 12:24:26;;;;;;;0.22;0.20;;;19.80;40.60;;;;;;8362841;28;20040;-48
2023/12/24 12:28:27;;;;;;;2.17;0.28;;;19.70;41.50;;;;;;8362621;28;20503;-48
2023/12/24 12:32:27;;;;;;;0.20;0.20;;;19.70;41.20;;;;;;8362913;28;20371;-49
2023/12/24 12:36:28;;;;;;;0.20;0.20;;;19.70;40.80;;;;;;8362348;28;20033;-48
2023/12/24 12:40:29;;;;;;;0.10;0.10;;;19.80;40.40;;;;;;8362203;28;20044;-49
2023/12/24 12:44:30;;;;;;;;;;;19.90;40.10;;;;;;8362696;28;20037;-48
2023/12/24 12:48:31;;;;;;;0.13;0.13;;;20.00;39.90;;;;;;8362022;28;20007;-47
2023/12/24 12:52:31;;;;;;;0.20;0.20;;;20.00;39.80;;;;;;8362009;28;20025;-47
2023/12/24 12:56:44;;;;;;;0.10;0.10;;;20.00;39.80;;;;;;8361711;28;20043;-48
2023/12/24 13:00:46;;;;;;;0.20;0.20;;;20.00;39.80;;;;;;8361728;28;20490;-47
2023/12/24 13:04:46;;;;;;;0.10;0.10;;;20.00;39.90;;;;;;8361692;28;20547;-50
2023/12/24 13:08:47;;;;;;;0.20;0.20;;;20.00;39.90;;;;;;8361256;28;20437;-48
2023/12/24 13:12:48;;;;;;;0.13;0.10;;;19.90;40.20;;;;;;8361690;28;20049;-48
2023/12/24 13:16:49;;;;;;;0.10;0.10;;;19.70;41.70;;;;;;8361324;28;20039;-48
2023/12/24 13:20:51;;;;;;;0.20;0.20;;;19.60;41.40;;;;;;8360899;28;20120;-48
2023/12/24 13:24:54;;;;;;;0.15;0.15;;;19.70;40.80;;;;;;8361527;28;20108;-48
2023/12/24 13:28:58;;;;;;;0.17;0.17;;;19.80;40.40;;;;;;8360644;28;20083;-49
2023/12/24 13:32:58;;;;;;;0.70;0.20;;;19.90;40.10;;;;;;8360639;28;20510;-49
2023/12/24 13:36:59;;;;;;;0.20;0.20;;;20.00;39.90;;;;;;8360711;28;20376;-50
2023/12/24 13:41:00;;;;;;;0.20;0.20;;;20.00;39.70;;;;;;8360497;28;20029;-51
2023/12/24 13:45:00;;;;;;;0.10;0.10;;;20.00;39.70;;;;;;8360674;28;20490;-50
2023/12/24 13:49:07;;;;;;;0.20;0.20;;;20.10;39.80;;;;;;8360314;28;20475;-49
2023/12/24 13:53:08;;;;;;;0.30;0.20;;;20.10;39.80;;;;;;8359673;28;20521;-50
2023/12/24 13:57:09;;;;;;;0.20;0.20;;;20.10;39.80;;;;;;8360172;28;20426;-50
2023/12/24 14:01:10;;;;;;;0.10;0.10;;;19.90;40.40;;;;;;8360156;28;20032;-49
2023/12/24 14:05:12;;;;;;;0.10;0.10;;;19.70;41.20;;;;;;8359640;28;20064;-49
2023/12/24 14:09:12;;;;;;;0.13;0.13;;;19.80;40.90;;;;;;8358642;28;20044;-51
2023/12/24 14:13:13;;;;;;;0.10;0.10;;;19.80;40.50;;;;;;8359969;28;20039;-49
2023/12/24 14:17:14;;;;;;;0.20;0.20;;;19.80;40.30;;;;;;8359771;28;20513;-51
2023/12/24 14:21:14;;;;;;;0.20;0.20;;;19.90;40.40;;;;;;8359749;28;20040;-49
2023/12/24 14:25:15;;;;;;;0.20;0.20;;;20.00;40.00;;;;;;8359484;28;20498;-50
2023/12/24 14:29:16;;;;;;;0.20;0.20;;;20.10;39.80;;;;;;8359617;28;20056;-49
2023/12/24 14:33:18;;;;;;;0.30;0.30;;;20.10;39.70;;;;;;8359526;28;20453;-50
2023/12/24 14:37:18;;;;;;;0.20;0.20;;;20.10;39.70;;;;;;8359435;28;20487;-50
2023/12/24 14:41:19;;;;;;;0.30;0.30;;;20.10;39.70;;;;;;8359149;28;20422;-49
2023/12/24 14:45:20;;;;;;;0.17;0.17;;;20.00;39.90;;;;;;8359596;28;20569;-50
2023/12/24 14:49:21;;;;;;;0.20;0.20;;;19.90;40.50;;;;;;8358951;28;20128;-49
2023/12/24 14:53:21;;;;;;;0.20;0.20;;;19.70;41.30;;;;;;8359048;28;20479;-50
2023/12/24 14:57:25;;;;;;;0.20;0.20;;;19.70;40.80;;;;;;8357833;28;20041;-49
2023/12/24 15:01:26;;;;;;;0.20;0.20;;;19.80;40.40;;;;;;8358951;28;20041;-51
2023/12/24 15:05:27;;;;;;;0.20;0.20;;;19.80;40.20;;;;;;8360506;28;20453;-49
2023/12/24 15:09:28;;;;;;;0.20;0.20;;;19.90;40.00;;;;;;8365163;28;20029;-50
2023/12/24 15:13:28;;;;;;;0.20;0.20;;;20.00;39.70;;;;;;8365035;28;20037;-48
2023/12/24 15:17:31;;;;;;;0.30;0.30;;;20.00;39.80;;;;;;8365139;28;20041;-50
2023/12/24 15:21:32;;;;;;;0.38;0.30;;;20.00;40.00;;;;;;8364823;28;20561;-50
2023/12/24 15:25:33;;;;;;;0.30;0.30;;;20.10;39.90;;;;;;8364845;28;20037;-49
2023/12/24 15:29:35;;;;;;;0.28;0.28;;;20.10;39.90;;;;;;8365399;28;20040;-49
2023/12/24 15:33:36;;;;;;;0.10;0.10;;;20.10;39.90;;;;;;8364461;28;20430;-49
2023/12/24 15:37:37;;;;;;;0.20;0.20;;;19.90;40.50;;;;;;8364524;28;20444;-51
2023/12/24 15:41:38;;;;;;;2.28;0.25;;;19.70;41.30;;;;;;8364051;28;20033;-51
2023/12/24 15:45:38;;;;;;;0.30;0.30;;;19.80;40.80;;;;;;8364016;28;20104;-51
2023/12/24 15:49:43;;;;;;;0.38;0.38;;;19.80;40.40;;;;;;8363797;28;20395;-49
2023/12/24 15:53:44;;;;;;;0.30;0.30;;;19.90;40.10;;;;;;8363902;28;20057;-49
2023/12/24 15:57:45;;;;;;;;;;;20.00;39.90;;;;;;8364193;28;20521;-49
2023/12/24 16:01:46;;;;;;;0.10;0.10;;;20.10;39.60;;;;;;8363581;28;20305;-51
2023/12/24 16:05:46;;;;;;;0.20;0.20;;;20.10;39.60;;;;;;8363231;28;20049;-49
2023/12/24 16:09:47;;;;;;;0.30;0.30;;;20.10;39.50;;;;;;8363196;28;20117;-49
2023/12/24 16:13:48;;;;;;;0.20;0.20;;;20.10;39.50;;;;;;8363256;28;20020;-50
2023/12/24 16:17:49;;;;;;;0.20;0.20;;;20.10;40.00;;;;;;8362744;28;20037;-50
2023/12/24 16:21:49;;;;;;;0.20;0.20;;;20.00;40.00;;;;;;8363203;28;20491;-50
2023/12/24 16:25:50;;;;;;;0.20;0.20;;;19.90;40.50;;;;;;8362550;28;20061;-50
2023/12/24 16:29:51;;;;;;;0.13;0.13;;;19.80;41.30;;;;;;8362881;28;20051;-48
2023/12/24 16:33:52;;;;;;;0.13;0.13;;;19.70;40.80;;;;;;8361619;28;20040;-49
2023/12/24 16:37:53;;;;;;;0.20;0.20;;;19.80;40.50;;;;;;8362590;28;20612;-49
2023/12/24 16:41:53;;;;;;;;;;;19.90;40.10;;;;;;8362943;28;20032;-50
2023/12/24 16:45:54;;;;;;;0.20;0.20;;;19.90;39.90;;;;;;8362338;28;19917;-49
2023/12/24 16:49:55;;;;;;;0.25;0.25;;;20.00;39.70;;;;;;8362188;28;20037;-48
2023/12/24 16:53:55;;;;;;;0.28;0.28;;;20.10;39.50;;;;;;8362166;28;20021;-50
2023/12/24 16:57:56;;;;;;;0.10;0.10;;;20.10;39.50;;;;;;8361769;28;20064;-49
2023/12/24 17:01:57;;;;;;;0.20;0.20;;;20.10;39.50;;;;;;8361856;28;20037;-48
2023/12/24 17:05:57;;;;;;;0.30;0.30;;;20.10;39.70;;;;;;8360400;28;20049;-49
2023/12/24 17:10:04;;;;;;;0.20;0.20;;;20.10;39.60;;;;;;8361726;28;20035;-50
2023/12/24 17:14:05;;;;;;;0.25;0.25;;;19.90;40.50;;;;;;8361310;28;20581;-49
2023/12/24 17:18:06;;;;;;;0.20;0.20;;;19.70;41.40;;;;;;8361474;28;20445;-48
2023/12/24 17:22:07;;;;;;;0.20;0.20;;;19.70;40.90;;;;;;8361168;28;20514;-48
2023/12/24 17:26:07;;;;;;;0.30;0.30;;;19.80;40.50;;;;;;8361067;28;20470;-49
2023/12/24 17:30:09;;;;;;;0.30;0.30;;;19.90;40.10;;;;;;8360170;28;20033;-48
2023/12/24 17:34:09;;;;;;;;;;;19.90;39.90;;;;;;8361315;28;20056;-49
2023/12/24 17:38:10;;;;;;;0.40;0.40;;;20.00;39.70;;;;;;8359666;28;19909;-51
2023/12/24 17:42:11;;;;;;;0.20;0.20;;;20.10;39.60;;;;;;8360679;28;20033;-50
2023/12/24 17:46:12;;;;;;;;;;;20.00;39.50;;;;;;8360706;28;20033;-48
2023/12/24 17:50:13;;;;;;;0.20;0.20;;;20.10;39.60;;;;;;8360765;28;20471;-50
2023/12/24 17:54:13;;;;;;;0.10;0.10;;;20.10;39.60;;;;;;8360279;28;20033;-49
2023/12/24 17:58:14;;;;;;;0.20;0.20;;;20.10;39.60;;;;;;8360291;28;20055;-48
2023/12/24 18:02:15;;;;;;;0.10;0.10;;;19.90;40.50;;;;;;8360857;28;20483;-51
2023/12/24 18:06:16;;;;;;;0.20;0.20;;;19.80;41.00;;;;;;8359665;28;20103;-48
2023/12/24 18:10:17;;;;;;;0.50;0.22;;;19.80;40.70;;;;;;8360848;28;20455;-51
2023/12/24 18:14:18;;;;;;;0.10;0.10;;;19.90;40.20;;;;;;8360518;28;20036;-49
2023/12/24 18:18:19;;;;;;;0.20;0.20;;;19.90;40.10;;;;;;8359697;28;20090;-51
2023/12/24 18:22:20;;;;;;;0.20;0.20;;;19.90;39.90;;;;;;8359685;28;20498;-49
2023/12/24 18:26:20;;;;;;;0.20;0.20;;;20.10;39.70;;;;;;8359530;28;20543;-51
2023/12/24 18:30:22;;;;;;;0.30;0.30;;;20.10;39.50;;;;;;8358233;28;20052;-51
2023/12/24 18:34:22;;;;;;;;;;;20.10;39.50;;;;;;8359896;28;20364;-49
2023/12/24 18:38:23;;;;;;;0.20;0.20;;;20.10;39.50;;;;;;8359760;28;19908;-49
2023/12/24 18:42:24;;;;;;;0.20;0.20;;;20.10;39.50;;;;;;8365009;28;20036;-51
2023/12/24 18:46:25;;;;;;;0.13;0.13;;;20.10;39.60;;;;;;8365987;28;20060;-50
2023/12/24 18:50:27;;;;;;;0.20;0.20;;;19.90;40.40;;;;;;8366374;28;20155;-52
2023/12/24 18:54:27;;;;;;;;;;;19.70;41.00;;;;;;8366214;28;20065;-48
2023/12/24 18:58:28;;;;;;;0.30;0.30;;;19.80;40.50;;;;;;8364301;28;19930;-48
2023/12/24 19:02:29;;;;;;;0.20;0.20;;;19.90;40.10;;;;;;8365968;28;20044;-49
2023/12/24 19:06:34;;;;;;;0.30;0.30;;;19.90;39.90;;;;;;8365323;28;20056;-47
2023/12/24 19:10:35;;;;;;;0.22;0.22;;;20.00;39.70;;;;;;8365427;28;20021;-49
2023/12/24 19:14:36;;;;;;;0.30;0.30;;;20.10;39.50;;;;;;8365273;28;20108;-48
2023/12/24 19:18:40;;;;;;;0.20;0.20;;;20.00;39.80;;;;;;8365057;28;20032;-50
2023/12/24 19:22:41;;;;;;;0.20;0.20;;;20.00;39.70;;;;;;8364959;28;20501;-46
2023/12/24 19:26:42;;;;;;;0.30;0.30;;;20.00;39.60;;;;;;8364610;28;20574;-48
2023/12/24 19:30:42;;;;;;;0.35;0.30;;;20.10;39.60;;;;;;8364687;28;20462;-47
2023/12/24 19:34:43;;;;;;;0.80;0.25;;;20.10;39.70;;;;;;8364531;28;20037;-48
2023/12/24 19:38:44;;;;;;;0.10;0.10;;;19.90;40.60;;;;;;8364252;28;20029;-48
2023/12/24 19:42:45;;;;;;;0.52;0.40;;;19.70;40.80;;;;;;8364365;28;20064;-47
2023/12/24 19:46:45;;;;;;;0.40;0.40;;;19.80;40.40;;;;;;8364186;28;20059;-49
2023/12/24 19:50:46;;;;;;;0.20;0.20;;;19.90;40.10;;;;;;8363306;28;20123;-47
2023/12/24 19:54:47;;;;;;;0.30;0.30;;;19.90;39.80;;;;;;8363968;28;20372;-47
2023/12/24 19:58:49;;;;;;;0.25;0.22;;;20.00;39.60;;;;;;8363965;28;20045;-48
2023/12/24 20:02:50;;;;;;;0.22;0.22;;;20.10;39.40;;;;;;8363974;28;20045;-49
2023/12/24 20:06:51;;;;;;;0.10;0.10;;;20.10;39.30;;;;;;8363169;28;20103;-46
2023/12/24 20:10:51;;;;;;;0.30;0.30;;;20.10;39.20;;;;;;8363383;28;20387;-47
2023/12/24 20:14:52;;;;;;;0.25;0.25;;;20.10;39.30;;;;;;8363235;28;20033;-48
2023/12/24 20:18:53;;;;;;;0.20;0.20;;;20.00;40.00;;;;;;8361988;28;20069;-47
2023/12/24 20:22:54;;;;;;;0.30;0.30;;;20.00;39.80;;;;;;8363372;28;20086;-48
2023/12/24 20:26:54;;;;;;;0.20;0.20;;;19.80;40.70;;;;;;8362858;28;20367;-49
2023/12/24 20:30:55;;;;;;;0.20;0.20;;;19.80;40.80;;;;;;8363014;28;20041;-47
2023/12/24 20:34:55;;;;;;;0.22;0.22;;;19.80;40.40;;;;;;8363111;28;20029;-49
2023/12/24 20:38:56;;;;;;;0.20;0.20;;;19.90;40.00;;;;;;8362623;28;20444;-47
2023/12/24 20:42:59;;;;;;;0.20;0.20;;;19.90;39.70;;;;;;8362580;28;20057;-48
2023/12/24 20:46:59;;;;;;;0.17;0.17;;;20.00;39.50;;;;;;8362429;28;20037;-51
2023/12/24 20:51:00;;;;;;;0.35;0.20;;;20.10;39.40;;;;;;8362030;28;20029;-47
2023/12/24 20:55:01;;;;;;;0.57;0.30;;;20.10;39.30;;;;;;8362035;28;20040;-48
2023/12/24 20:59:02;;;;;;;0.80;0.28;;;20.10;39.30;;;;;;8334374;28;20044;-49
2023/12/24 21:03:02;;;;;;;0.30;0.30;;;20.10;39.30;;;;;;8328701;28;20063;-51